sensor_id;sensor_type;location;lat;lon;timestamp;pressure;altitude;pressure_sealevel;temperature;humidity
64211;BME280;73293;48.538;14.354;2023-12-29T00:00:26;93908.45;;;6.49;67.67
64211;BME280;73293;48.538;14.354;2023-12-29T00:01:22;93895.59;;;6.36;68.04
64211;BME280;73293;48.538;14.354;2023-12-29T00:01:56;93915.42;;;6.47;68.24
64211;BME280;73293;48.538;14.354;2023-12-29T00:02:30;93921.13;;;6.53;68.04
64211;BME280;73293;48.538;14.354;2023-12-29T00:03:04;93922.88;;;6.55;67.94
64211;BME280;73293;48.538;14.354;2023-12-29T00:04:06;93910.23;;;6.57;68.03
64211;BME280;73293;48.538;14.354;2023-12-29T00:04:41;93909.02;;;6.58;67.84
64211;BME280;73293;48.538;14.354;2023-12-29T00:05:15;93906.56;;;6.58;67.75
64211;BME280;73293;48.538;14.354;2023-12-29T00:05:49;93906.79;;;6.59;67.81
64211;BME280;73293;48.538;14.354;2023-12-29T00:06:23;93904.21;;;6.68;68.23
64211;BME280;73293;48.538;14.354;2023-12-29T00:06:57;93903.86;;;6.66;68.12
64211;BME280;73293;48.538;14.354;2023-12-29T00:07:47;93907.61;;;6.64;68.20
64211;BME280;73293;48.538;14.354;2023-12-29T00:08:21;93906.23;;;6.67;68.18
64211;BME280;73293;48.538;14.354;2023-12-29T00:08:55;93907.30;;;6.70;68.04
64211;BME280;73293;48.538;14.354;2023-12-29T00:09:29;93907.23;;;6.66;68.04
64211;BME280;73293;48.538;14.354;2023-12-29T00:10:04;93904.05;;;6.66;68.07
64211;BME280;73293;48.538;14.354;2023-12-29T00:10:37;93909.48;;;6.68;67.63
64211;BME280;73293;48.538;14.354;2023-12-29T00:11:27;93908.10;;;6.94;67.17
64211;BME280;73293;48.538;14.354;2023-12-29T00:12:01;93904.56;;;6.85;67.22
64211;BME280;73293;48.538;14.354;2023-12-29T00:12:35;93902.82;;;6.80;67.37
64211;BME280;73293;48.538;14.354;2023-12-29T00:13:10;93906.69;;;6.79;67.44
64211;BME280;73293;48.538;14.354;2023-12-29T00:13:43;93905.16;;;6.78;67.35
64211;BME280;73293;48.538;14.354;2023-12-29T00:14:17;93905.01;;;6.82;67.61
64211;BME280;73293;48.538;14.354;2023-12-29T00:15:07;93905.60;;;6.87;67.30
64211;BME280;73293;48.538;14.354;2023-12-29T00:15:43;93903.72;;;6.85;67.37
64211;BME280;73293;48.538;14.354;2023-12-29T00:16:20;93908.04;;;6.86;66.27
64211;BME280;73293;48.538;14.354;2023-12-29T00:16:54;93908.86;;;6.90;67.02
64211;BME280;73293;48.538;14.354;2023-12-29T00:17:31;93911.11;;;6.90;67.08
64211;BME280;73293;48.538;14.354;2023-12-29T00:18:06;93912.73;;;6.97;66.75
64211;BME280;73293;48.538;14.354;2023-12-29T00:18:52;93913.79;;;7.07;66.06
64211;BME280;73293;48.538;14.354;2023-12-29T00:19:27;93914.57;;;7.06;65.77
64211;BME280;73293;48.538;14.354;2023-12-29T00:20:01;93900.81;;;6.98;65.13
64211;BME280;73293;48.538;14.354;2023-12-29T00:20:35;93916.67;;;7.13;64.78
64211;BME280;73293;48.538;14.354;2023-12-29T00:21:14;93916.68;;;7.16;64.88
64211;BME280;73293;48.538;14.354;2023-12-29T00:21:55;93919.11;;;7.16;65.19
64211;BME280;73293;48.538;14.354;2023-12-29T00:22:37;93912.70;;;7.18;65.26
64211;BME280;73293;48.538;14.354;2023-12-29T00:23:11;93913.82;;;7.16;65.45
64211;BME280;73293;48.538;14.354;2023-12-29T00:23:44;93911.96;;;7.17;65.33
64211;BME280;73293;48.538;14.354;2023-12-29T00:24:21;93916.38;;;7.19;65.53
64211;BME280;73293;48.538;14.354;2023-12-29T00:24:54;93913.46;;;7.21;65.42
64211;BME280;73293;48.538;14.354;2023-12-29T00:25:29;93912.05;;;7.21;65.37
64211;BME280;73293;48.538;14.354;2023-12-29T00:26:16;93915.35;;;7.23;65.22
64211;BME280;73293;48.538;14.354;2023-12-29T00:26:52;93916.55;;;7.19;65.27
64211;BME280;73293;48.538;14.354;2023-12-29T00:27:25;93914.45;;;7.19;65.40
64211;BME280;73293;48.538;14.354;2023-12-29T00:28:00;93914.34;;;7.18;66.03
64211;BME280;73293;48.538;14.354;2023-12-29T00:28:35;93912.48;;;7.21;65.78
64211;BME280;73293;48.538;14.354;2023-12-29T00:29:14;93911.80;;;7.22;65.71
64211;BME280;73293;48.538;14.354;2023-12-29T00:30:04;93908.64;;;7.22;65.73
64211;BME280;73293;48.538;14.354;2023-12-29T00:30:39;93904.61;;;7.18;65.90
64211;BME280;73293;48.538;14.354;2023-12-29T00:31:34;93900.23;;;7.16;65.88
64211;BME280;73293;48.538;14.354;2023-12-29T00:32:08;93895.04;;;7.16;65.95
64211;BME280;73293;48.538;14.354;2023-12-29T00:32:43;93889.29;;;7.16;66.02
64211;BME280;73293;48.538;14.354;2023-12-29T00:33:55;93875.34;;;7.20;66.08
64211;BME280;73293;48.538;14.354;2023-12-29T00:34:32;93877.80;;;7.18;66.21
64211;BME280;73293;48.538;14.354;2023-12-29T00:35:06;93876.21;;;7.17;66.31
64211;BME280;73293;48.538;14.354;2023-12-29T00:35:40;93879.83;;;7.17;66.55
64211;BME280;73293;48.538;14.354;2023-12-29T00:36:18;93881.06;;;7.19;66.82
64211;BME280;73293;48.538;14.354;2023-12-29T00:36:52;93878.23;;;7.19;66.47
64211;BME280;73293;48.538;14.354;2023-12-29T00:37:35;93877.70;;;7.18;66.08
64211;BME280;73293;48.538;14.354;2023-12-29T00:38:09;93882.61;;;7.16;66.28
64211;BME280;73293;48.538;14.354;2023-12-29T00:38:43;93881.31;;;7.27;66.52
64211;BME280;73293;48.538;14.354;2023-12-29T00:39:17;93882.45;;;7.46;65.77
64211;BME280;73293;48.538;14.354;2023-12-29T00:39:50;93881.00;;;7.54;66.57
64211;BME280;73293;48.538;14.354;2023-12-29T00:40:25;93874.31;;;7.47;67.16
64211;BME280;73293;48.538;14.354;2023-12-29T00:41:19;93858.80;;;7.39;67.18
64211;BME280;73293;48.538;14.354;2023-12-29T00:41:55;93857.21;;;7.23;67.50
64211;BME280;73293;48.538;14.354;2023-12-29T00:42:29;93853.99;;;7.13;67.62
64211;BME280;73293;48.538;14.354;2023-12-29T00:43:05;93859.31;;;7.04;67.73
64211;BME280;73293;48.538;14.354;2023-12-29T00:43:39;93854.56;;;6.99;67.86
64211;BME280;73293;48.538;14.354;2023-12-29T00:44:13;93852.06;;;7.00;67.95
64211;BME280;73293;48.538;14.354;2023-12-29T00:44:59;93852.36;;;7.04;68.15
64211;BME280;73293;48.538;14.354;2023-12-29T00:45:40;93857.95;;;6.95;69.11
64211;BME280;73293;48.538;14.354;2023-12-29T00:46:15;93859.09;;;6.89;68.98
64211;BME280;73293;48.538;14.354;2023-12-29T00:46:51;93865.63;;;7.01;69.51
64211;BME280;73293;48.538;14.354;2023-12-29T00:47:25;93862.63;;;7.13;69.16
64211;BME280;73293;48.538;14.354;2023-12-29T00:48:14;93869.77;;;7.11;69.34
64211;BME280;73293;48.538;14.354;2023-12-29T00:48:51;93870.95;;;7.02;69.76
64211;BME280;73293;48.538;14.354;2023-12-29T00:49:26;93868.00;;;6.98;70.11
64211;BME280;73293;48.538;14.354;2023-12-29T00:50:01;93869.34;;;6.97;70.25
64211;BME280;73293;48.538;14.354;2023-12-29T00:50:36;93869.02;;;6.86;70.34
64211;BME280;73293;48.538;14.354;2023-12-29T00:51:10;93867.12;;;6.73;70.47
64211;BME280;73293;48.538;14.354;2023-12-29T00:51:55;93866.70;;;6.68;70.70
64211;BME280;73293;48.538;14.354;2023-12-29T00:52:30;93869.64;;;6.62;70.74
64211;BME280;73293;48.538;14.354;2023-12-29T00:53:04;93871.58;;;6.61;70.77
64211;BME280;73293;48.538;14.354;2023-12-29T00:53:38;93878.59;;;6.61;70.83
64211;BME280;73293;48.538;14.354;2023-12-29T00:54:12;93881.58;;;6.61;71.14
64211;BME280;73293;48.538;14.354;2023-12-29T00:54:46;93888.52;;;6.61;72.18
64211;BME280;73293;48.538;14.354;2023-12-29T00:55:35;93895.20;;;6.65;72.67
64211;BME280;73293;48.538;14.354;2023-12-29T00:56:11;93902.92;;;6.58;73.09
64211;BME280;73293;48.538;14.354;2023-12-29T00:56:51;93906.48;;;6.65;72.99
64211;BME280;73293;48.538;14.354;2023-12-29T00:57:25;93907.55;;;6.56;73.63
64211;BME280;73293;48.538;14.354;2023-12-29T00:57:59;93909.80;;;6.56;73.67
64211;BME280;73293;48.538;14.354;2023-12-29T00:58:33;93911.34;;;6.55;73.68
64211;BME280;73293;48.538;14.354;2023-12-29T00:59:20;93915.66;;;6.53;73.58
64211;BME280;73293;48.538;14.354;2023-12-29T00:59:54;93912.36;;;6.44;73.55
64211;BME280;73293;48.538;14.354;2023-12-29T01:00:28;93917.15;;;6.48;73.21
64211;BME280;73293;48.538;14.354;2023-12-29T01:01:03;93918.73;;;6.48;73.18
64211;BME280;73293;48.538;14.354;2023-12-29T01:01:38;93919.45;;;6.52;73.01
64211;BME280;73293;48.538;14.354;2023-12-29T01:02:13;93916.81;;;6.58;73.18
64211;BME280;73293;48.538;14.354;2023-12-29T01:03:01;93919.77;;;6.50;73.81
64211;BME280;73293;48.538;14.354;2023-12-29T01:03:35;93919.27;;;6.44;73.90
64211;BME280;73293;48.538;14.354;2023-12-29T01:04:12;93918.82;;;6.42;74.07
64211;BME280;73293;48.538;14.354;2023-12-29T01:04:56;93914.80;;;6.39;74.14
64211;BME280;73293;48.538;14.354;2023-12-29T01:05:31;93915.37;;;6.37;74.54
64211;BME280;73293;48.538;14.354;2023-12-29T01:06:43;93912.71;;;6.39;75.34
64211;BME280;73293;48.538;14.354;2023-12-29T01:07:18;93916.00;;;6.31;76.30
64211;BME280;73293;48.538;14.354;2023-12-29T01:07:52;93912.53;;;6.29;75.82
64211;BME280;73293;48.538;14.354;2023-12-29T01:08:26;93918.81;;;6.31;76.28
64211;BME280;73293;48.538;14.354;2023-12-29T01:09:01;93918.24;;;6.29;77.44
64211;BME280;73293;48.538;14.354;2023-12-29T01:09:39;93914.23;;;6.28;77.48
64211;BME280;73293;48.538;14.354;2023-12-29T01:10:23;93911.20;;;6.30;77.33
64211;BME280;73293;48.538;14.354;2023-12-29T01:10:57;93911.52;;;6.24;78.38
64211;BME280;73293;48.538;14.354;2023-12-29T01:11:31;93914.13;;;6.24;77.64
64211;BME280;73293;48.538;14.354;2023-12-29T01:12:05;93907.75;;;6.23;77.37
64211;BME280;73293;48.538;14.354;2023-12-29T01:12:39;93913.21;;;6.36;76.80
64211;BME280;73293;48.538;14.354;2023-12-29T01:13:13;93911.00;;;6.34;76.90
64211;BME280;73293;48.538;14.354;2023-12-29T01:14:06;93905.97;;;6.29;76.90
64211;BME280;73293;48.538;14.354;2023-12-29T01:14:39;93909.02;;;6.29;77.00
64211;BME280;73293;48.538;14.354;2023-12-29T01:15:13;93908.56;;;6.30;77.71
64211;BME280;73293;48.538;14.354;2023-12-29T01:15:48;93910.23;;;6.28;77.56
64211;BME280;73293;48.538;14.354;2023-12-29T01:16:23;93909.80;;;6.30;77.52
64211;BME280;73293;48.538;14.354;2023-12-29T01:16:57;93909.76;;;6.26;79.26
64211;BME280;73293;48.538;14.354;2023-12-29T01:17:44;93912.48;;;6.25;79.74
64211;BME280;73293;48.538;14.354;2023-12-29T01:18:19;93908.62;;;6.21;79.45
64211;BME280;73293;48.538;14.354;2023-12-29T01:18:54;93909.09;;;6.17;79.73
64211;BME280;73293;48.538;14.354;2023-12-29T01:19:30;93904.30;;;6.14;80.18
64211;BME280;73293;48.538;14.354;2023-12-29T01:20:04;93905.95;;;6.11;79.75
64211;BME280;73293;48.538;14.354;2023-12-29T01:20:39;93908.44;;;6.15;78.97
64211;BME280;73293;48.538;14.354;2023-12-29T01:21:25;93913.05;;;6.15;78.96
64211;BME280;73293;48.538;14.354;2023-12-29T01:22:04;93910.65;;;6.15;78.76
64211;BME280;73293;48.538;14.354;2023-12-29T01:22:38;93914.34;;;6.16;78.52
64211;BME280;73293;48.538;14.354;2023-12-29T01:23:13;93914.40;;;6.17;79.11
64211;BME280;73293;48.538;14.354;2023-12-29T01:23:48;93911.24;;;6.16;79.83
64211;BME280;73293;48.538;14.354;2023-12-29T01:24:22;93907.30;;;6.09;80.24
64211;BME280;73293;48.538;14.354;2023-12-29T01:25:14;93911.98;;;6.11;81.05
64211;BME280;73293;48.538;14.354;2023-12-29T01:25:48;93911.48;;;6.04;80.73
64211;BME280;73293;48.538;14.354;2023-12-29T01:26:22;93906.89;;;6.03;80.67
64211;BME280;73293;48.538;14.354;2023-12-29T01:26:57;93909.29;;;6.03;80.25
64211;BME280;73293;48.538;14.354;2023-12-29T01:27:33;93906.36;;;6.06;80.25
64211;BME280;73293;48.538;14.354;2023-12-29T01:28:07;93910.80;;;6.12;80.03
64211;BME280;73293;48.538;14.354;2023-12-29T01:28:58;93910.88;;;6.12;79.79
64211;BME280;73293;48.538;14.354;2023-12-29T01:29:32;93909.23;;;6.06;80.45
64211;BME280;73293;48.538;14.354;2023-12-29T01:30:09;93900.23;;;5.98;81.47
64211;BME280;73293;48.538;14.354;2023-12-29T01:30:43;93909.45;;;6.03;80.92
64211;BME280;73293;48.538;14.354;2023-12-29T01:31:17;93909.53;;;6.02;81.08
64211;BME280;73293;48.538;14.354;2023-12-29T01:31:51;93910.02;;;6.05;80.41
64211;BME280;73293;48.538;14.354;2023-12-29T01:32:35;93911.16;;;6.12;79.89
64211;BME280;73293;48.538;14.354;2023-12-29T01:33:14;93906.50;;;6.05;79.88
64211;BME280;73293;48.538;14.354;2023-12-29T01:33:48;93907.60;;;6.15;79.33
64211;BME280;73293;48.538;14.354;2023-12-29T01:34:32;93905.38;;;6.09;79.40
64211;BME280;73293;48.538;14.354;2023-12-29T01:35:08;93902.88;;;6.06;80.13
64211;BME280;73293;48.538;14.354;2023-12-29T01:36:17;93903.13;;;6.09;80.90
64211;BME280;73293;48.538;14.354;2023-12-29T01:36:59;93902.55;;;6.03;80.88
64211;BME280;73293;48.538;14.354;2023-12-29T01:37:36;93904.36;;;6.02;81.28
64211;BME280;73293;48.538;14.354;2023-12-29T01:38:10;93905.27;;;5.99;81.73
64211;BME280;73293;48.538;14.354;2023-12-29T01:38:44;93907.20;;;5.99;81.14
64211;BME280;73293;48.538;14.354;2023-12-29T01:39:57;93906.27;;;6.08;79.98
64211;BME280;73293;48.538;14.354;2023-12-29T01:40:42;93904.59;;;6.08;79.37
64211;BME280;73293;48.538;14.354;2023-12-29T01:41:19;93909.20;;;6.07;79.49
64211;BME280;73293;48.538;14.354;2023-12-29T01:41:58;93900.23;;;6.02;79.53
64211;BME280;73293;48.538;14.354;2023-12-29T01:42:32;93906.27;;;6.07;79.17
64211;BME280;73293;48.538;14.354;2023-12-29T01:44:31;93904.92;;;6.10;78.52
64211;BME280;73293;48.538;14.354;2023-12-29T01:45:06;93902.23;;;6.09;78.50
64211;BME280;73293;48.538;14.354;2023-12-29T01:45:50;93901.11;;;6.12;77.61
64211;BME280;73293;48.538;14.354;2023-12-29T01:46:35;93897.13;;;6.07;77.02
64211;BME280;73293;48.538;14.354;2023-12-29T01:47:19;93899.69;;;6.23;76.66
64211;BME280;73293;48.538;14.354;2023-12-29T01:47:57;93893.06;;;6.19;76.05
64211;BME280;73293;48.538;14.354;2023-12-29T01:48:31;93898.30;;;6.18;75.59
64211;BME280;73293;48.538;14.354;2023-12-29T01:49:05;93900.53;;;6.19;74.55
64211;BME280;73293;48.538;14.354;2023-12-29T01:49:40;93898.56;;;6.26;73.61
64211;BME280;73293;48.538;14.354;2023-12-29T01:50:18;93902.91;;;6.29;72.61
64211;BME280;73293;48.538;14.354;2023-12-29T01:51:04;93902.48;;;6.33;72.48
64211;BME280;73293;48.538;14.354;2023-12-29T01:51:40;93905.58;;;6.35;72.91
64211;BME280;73293;48.538;14.354;2023-12-29T01:52:17;93905.48;;;6.36;71.95
64211;BME280;73293;48.538;14.354;2023-12-29T01:52:52;93906.88;;;6.39;72.35
64211;BME280;73293;48.538;14.354;2023-12-29T01:53:27;93907.27;;;6.41;72.31
64211;BME280;73293;48.538;14.354;2023-12-29T01:54:41;93897.42;;;6.44;72.37
64211;BME280;73293;48.538;14.354;2023-12-29T01:55:18;93894.88;;;6.33;71.31
64211;BME280;73293;48.538;14.354;2023-12-29T01:55:56;93900.37;;;6.40;70.21
64211;BME280;73293;48.538;14.354;2023-12-29T01:56:32;93904.27;;;6.39;70.33
64211;BME280;73293;48.538;14.354;2023-12-29T01:57:08;93902.48;;;6.51;69.45
64211;BME280;73293;48.538;14.354;2023-12-29T01:58:18;93898.08;;;6.57;70.07
64211;BME280;73293;48.538;14.354;2023-12-29T01:58:55;93901.86;;;6.56;69.34
64211;BME280;73293;48.538;14.354;2023-12-29T01:59:45;93903.52;;;6.54;69.82
64211;BME280;73293;48.538;14.354;2023-12-29T02:00:20;93904.69;;;6.54;69.65
64211;BME280;73293;48.538;14.354;2023-12-29T02:00:54;93904.62;;;6.56;69.02
64211;BME280;73293;48.538;14.354;2023-12-29T02:02:08;93899.67;;;6.60;68.57
64211;BME280;73293;48.538;14.354;2023-12-29T02:02:46;93899.15;;;6.63;68.45
64211;BME280;73293;48.538;14.354;2023-12-29T02:03:20;93901.98;;;6.58;68.40
64211;BME280;73293;48.538;14.354;2023-12-29T02:03:54;93890.83;;;6.47;68.95
64211;BME280;73293;48.538;14.354;2023-12-29T02:04:30;93902.38;;;6.56;69.03
64211;BME280;73293;48.538;14.354;2023-12-29T02:05:42;93896.97;;;6.54;68.50
64211;BME280;73293;48.538;14.354;2023-12-29T02:06:17;93902.58;;;6.55;68.63
64211;BME280;73293;48.538;14.354;2023-12-29T02:06:51;93901.88;;;6.58;68.55
64211;BME280;73293;48.538;14.354;2023-12-29T02:07:28;93899.80;;;6.59;67.77
64211;BME280;73293;48.538;14.354;2023-12-29T02:08:04;93896.02;;;6.72;67.86
64211;BME280;73293;48.538;14.354;2023-12-29T02:08:41;93900.74;;;6.63;68.06
64211;BME280;73293;48.538;14.354;2023-12-29T02:09:23;93895.29;;;6.66;67.87
64211;BME280;73293;48.538;14.354;2023-12-29T02:09:59;93899.35;;;6.64;67.63
64211;BME280;73293;48.538;14.354;2023-12-29T02:10:37;93901.73;;;6.69;67.86
64211;BME280;73293;48.538;14.354;2023-12-29T02:11:12;93881.24;;;6.56;67.68
64211;BME280;73293;48.538;14.354;2023-12-29T02:11:47;93892.05;;;6.86;67.03
64211;BME280;73293;48.538;14.354;2023-12-29T02:12:27;93894.70;;;6.74;67.21
64211;BME280;73293;48.538;14.354;2023-12-29T02:13:11;93895.11;;;6.73;67.49
64211;BME280;73293;48.538;14.354;2023-12-29T02:13:45;93896.64;;;6.68;67.85
64211;BME280;73293;48.538;14.354;2023-12-29T02:14:20;93895.06;;;6.77;67.55
64211;BME280;73293;48.538;14.354;2023-12-29T02:14:55;93897.66;;;6.75;67.82
64211;BME280;73293;48.538;14.354;2023-12-29T02:15:29;93893.69;;;6.75;67.86
64211;BME280;73293;48.538;14.354;2023-12-29T02:16:09;93897.27;;;6.72;68.00
64211;BME280;73293;48.538;14.354;2023-12-29T02:17:45;93895.52;;;6.70;68.10
64211;BME280;73293;48.538;14.354;2023-12-29T02:18:22;93893.94;;;6.72;68.96
64211;BME280;73293;48.538;14.354;2023-12-29T02:19:01;93891.80;;;6.65;69.05
64211;BME280;73293;48.538;14.354;2023-12-29T02:20:48;93897.82;;;6.61;70.08
64211;BME280;73293;48.538;14.354;2023-12-29T02:21:25;93897.91;;;6.56;70.16
64211;BME280;73293;48.538;14.354;2023-12-29T02:22:00;93895.42;;;6.53;71.05
64211;BME280;73293;48.538;14.354;2023-12-29T02:22:34;93895.45;;;6.49;71.51
64211;BME280;73293;48.538;14.354;2023-12-29T02:23:08;93893.48;;;6.47;71.28
64211;BME280;73293;48.538;14.354;2023-12-29T02:23:43;93892.60;;;6.42;71.78
64211;BME280;73293;48.538;14.354;2023-12-29T02:24:34;93888.06;;;6.37;72.21
64211;BME280;73293;48.538;14.354;2023-12-29T02:25:11;93890.64;;;6.33;72.77
64211;BME280;73293;48.538;14.354;2023-12-29T02:25:49;93881.08;;;6.27;71.74
64211;BME280;73293;48.538;14.354;2023-12-29T02:26:29;93891.89;;;6.35;71.36
64211;BME280;73293;48.538;14.354;2023-12-29T02:27:18;93883.14;;;6.27;71.75
64211;BME280;73293;48.538;14.354;2023-12-29T02:28:15;93890.46;;;6.35;71.14
64211;BME280;73293;48.538;14.354;2023-12-29T02:28:57;93891.31;;;6.37;70.87
64211;BME280;73293;48.538;14.354;2023-12-29T02:29:33;93891.24;;;6.34;70.82
64211;BME280;73293;48.538;14.354;2023-12-29T02:30:26;93889.14;;;6.28;70.86
64211;BME280;73293;48.538;14.354;2023-12-29T02:31:24;93888.41;;;6.49;70.27
64211;BME280;73293;48.538;14.354;2023-12-29T02:32:16;93883.34;;;6.49;69.84
64211;BME280;73293;48.538;14.354;2023-12-29T02:32:55;93882.89;;;6.37;70.51
64211;BME280;73293;48.538;14.354;2023-12-29T02:33:30;93883.02;;;6.41;70.40
64211;BME280;73293;48.538;14.354;2023-12-29T02:34:07;93881.17;;;6.34;70.21
64211;BME280;73293;48.538;14.354;2023-12-29T02:34:46;93876.79;;;6.40;69.97
64211;BME280;73293;48.538;14.354;2023-12-29T02:35:55;93882.13;;;6.41;69.77
64211;BME280;73293;48.538;14.354;2023-12-29T02:36:30;93882.11;;;6.36;70.43
64211;BME280;73293;48.538;14.354;2023-12-29T02:37:07;93881.29;;;6.37;70.69
64211;BME280;73293;48.538;14.354;2023-12-29T02:37:42;93881.59;;;6.37;70.86
64211;BME280;73293;48.538;14.354;2023-12-29T02:38:19;93888.67;;;6.34;71.12
64211;BME280;73293;48.538;14.354;2023-12-29T02:39:33;93886.63;;;6.33;71.34
64211;BME280;73293;48.538;14.354;2023-12-29T02:40:08;93891.60;;;6.21;71.56
64211;BME280;73293;48.538;14.354;2023-12-29T02:40:42;93888.56;;;6.11;71.74
64211;BME280;73293;48.538;14.354;2023-12-29T02:41:16;93881.98;;;6.05;71.79
64211;BME280;73293;48.538;14.354;2023-12-29T02:41:50;93875.89;;;6.00;71.82
64211;BME280;73293;48.538;14.354;2023-12-29T02:42:24;93887.81;;;6.05;71.95
64211;BME280;73293;48.538;14.354;2023-12-29T02:43:11;93887.89;;;6.00;72.09
64211;BME280;73293;48.538;14.354;2023-12-29T02:43:46;93881.80;;;5.82;72.49
64211;BME280;73293;48.538;14.354;2023-12-29T02:44:20;93882.55;;;5.79;72.46
64211;BME280;73293;48.538;14.354;2023-12-29T02:44:54;93881.84;;;5.72;72.76
64211;BME280;73293;48.538;14.354;2023-12-29T02:45:33;93881.66;;;5.67;73.04
64211;BME280;73293;48.538;14.354;2023-12-29T02:46:12;93887.83;;;5.63;73.34
64211;BME280;73293;48.538;14.354;2023-12-29T02:46:55;93883.15;;;5.58;73.68
64211;BME280;73293;48.538;14.354;2023-12-29T02:47:30;93883.96;;;5.42;74.03
64211;BME280;73293;48.538;14.354;2023-12-29T02:48:05;93881.55;;;5.42;74.00
64211;BME280;73293;48.538;14.354;2023-12-29T02:48:39;93885.31;;;5.40;73.90
64211;BME280;73293;48.538;14.354;2023-12-29T02:49:13;93885.87;;;5.34;74.01
64211;BME280;73293;48.538;14.354;2023-12-29T02:49:48;93884.96;;;5.33;73.84
64211;BME280;73293;48.538;14.354;2023-12-29T02:50:40;93881.92;;;5.33;73.67
64211;BME280;73293;48.538;14.354;2023-12-29T02:51:14;93881.31;;;5.30;73.79
64211;BME280;73293;48.538;14.354;2023-12-29T02:51:48;93882.98;;;5.25;74.04
64211;BME280;73293;48.538;14.354;2023-12-29T02:52:23;93884.02;;;5.18;74.37
64211;BME280;73293;48.538;14.354;2023-12-29T02:52:58;93882.73;;;5.21;74.24
64211;BME280;73293;48.538;14.354;2023-12-29T02:53:31;93882.80;;;5.23;74.07
64211;BME280;73293;48.538;14.354;2023-12-29T02:54:19;93879.00;;;5.17;74.26
64211;BME280;73293;48.538;14.354;2023-12-29T02:54:53;93879.81;;;5.01;74.60
64211;BME280;73293;48.538;14.354;2023-12-29T02:55:28;93880.70;;;5.00;74.53
64211;BME280;73293;48.538;14.354;2023-12-29T02:56:03;93872.61;;;4.93;74.67
64211;BME280;73293;48.538;14.354;2023-12-29T02:56:37;93877.66;;;4.93;74.65
64211;BME280;73293;48.538;14.354;2023-12-29T02:57:11;93877.66;;;4.93;74.57
64211;BME280;73293;48.538;14.354;2023-12-29T02:58:01;93878.19;;;4.91;74.57
64211;BME280;73293;48.538;14.354;2023-12-29T02:58:38;93877.98;;;4.84;74.69
64211;BME280;73293;48.538;14.354;2023-12-29T02:59:14;93877.86;;;4.81;75.03
64211;BME280;73293;48.538;14.354;2023-12-29T02:59:49;93875.47;;;4.79;75.06
64211;BME280;73293;48.538;14.354;2023-12-29T03:00:23;93875.92;;;4.78;74.95
64211;BME280;73293;48.538;14.354;2023-12-29T03:00:58;93866.83;;;4.69;75.18
64211;BME280;73293;48.538;14.354;2023-12-29T03:01:43;93872.52;;;4.71;75.67
64211;BME280;73293;48.538;14.354;2023-12-29T03:02:18;93865.52;;;4.55;76.01
64211;BME280;73293;48.538;14.354;2023-12-29T03:02:53;93872.75;;;4.53;76.23
64211;BME280;73293;48.538;14.354;2023-12-29T03:03:29;93875.29;;;4.47;76.62
64211;BME280;73293;48.538;14.354;2023-12-29T03:04:02;93873.34;;;4.46;76.39
64211;BME280;73293;48.538;14.354;2023-12-29T03:04:36;93873.71;;;4.42;76.29
64211;BME280;73293;48.538;14.354;2023-12-29T03:05:24;93871.17;;;4.47;76.13
64211;BME280;73293;48.538;14.354;2023-12-29T03:05:58;93875.45;;;4.41;76.50
64211;BME280;73293;48.538;14.354;2023-12-29T03:06:32;93877.82;;;4.39;76.90
64211;BME280;73293;48.538;14.354;2023-12-29T03:07:06;93875.66;;;4.37;77.19
64211;BME280;73293;48.538;14.354;2023-12-29T03:07:41;93877.48;;;4.36;77.36
64211;BME280;73293;48.538;14.354;2023-12-29T03:08:15;93873.50;;;4.30;77.83
64211;BME280;73293;48.538;14.354;2023-12-29T03:09:05;93876.83;;;4.27;78.35
64211;BME280;73293;48.538;14.354;2023-12-29T03:09:39;93878.12;;;4.19;78.66
64211;BME280;73293;48.538;14.354;2023-12-29T03:10:18;93878.08;;;4.18;78.59
64211;BME280;73293;48.538;14.354;2023-12-29T03:10:53;93879.10;;;4.19;78.72
64211;BME280;73293;48.538;14.354;2023-12-29T03:11:27;93875.02;;;4.21;78.28
64211;BME280;73293;48.538;14.354;2023-12-29T03:12:03;93874.84;;;4.34;78.12
64211;BME280;73293;48.538;14.354;2023-12-29T03:12:51;93873.60;;;4.32;77.97
64211;BME280;73293;48.538;14.354;2023-12-29T03:13:26;93864.52;;;4.15;78.81
64211;BME280;73293;48.538;14.354;2023-12-29T03:14:00;93867.80;;;4.17;79.07
64211;BME280;73293;48.538;14.354;2023-12-29T03:14:34;93868.44;;;4.18;79.32
64211;BME280;73293;48.538;14.354;2023-12-29T03:15:08;93865.33;;;4.21;79.39
64211;BME280;73293;48.538;14.354;2023-12-29T03:15:43;93866.84;;;4.17;79.74
64211;BME280;73293;48.538;14.354;2023-12-29T03:16:33;93863.62;;;4.18;79.61
64211;BME280;73293;48.538;14.354;2023-12-29T03:17:07;93864.56;;;4.15;79.79
64211;BME280;73293;48.538;14.354;2023-12-29T03:17:40;93864.85;;;4.19;79.31
64211;BME280;73293;48.538;14.354;2023-12-29T03:18:15;93864.90;;;4.28;79.04
64211;BME280;73293;48.538;14.354;2023-12-29T03:18:49;93864.02;;;4.29;79.14
64211;BME280;73293;48.538;14.354;2023-12-29T03:19:23;93865.45;;;4.30;79.22
64211;BME280;73293;48.538;14.354;2023-12-29T03:20:14;93860.13;;;4.45;78.67
64211;BME280;73293;48.538;14.354;2023-12-29T03:20:48;93863.41;;;4.37;78.77
64211;BME280;73293;48.538;14.354;2023-12-29T03:21:23;93864.67;;;4.36;78.91
64211;BME280;73293;48.538;14.354;2023-12-29T03:21:57;93863.61;;;4.30;79.63
64211;BME280;73293;48.538;14.354;2023-12-29T03:22:32;93863.70;;;4.29;79.63
64211;BME280;73293;48.538;14.354;2023-12-29T03:23:06;93847.64;;;4.21;79.46
64211;BME280;73293;48.538;14.354;2023-12-29T03:23:53;93864.73;;;4.34;79.16
64211;BME280;73293;48.538;14.354;2023-12-29T03:24:29;93862.27;;;4.33;79.28
64211;BME280;73293;48.538;14.354;2023-12-29T03:25:03;93864.21;;;4.43;79.19
64211;BME280;73293;48.538;14.354;2023-12-29T03:25:38;93867.27;;;4.36;79.20
64211;BME280;73293;48.538;14.354;2023-12-29T03:26:13;93866.92;;;4.24;80.06
64211;BME280;73293;48.538;14.354;2023-12-29T03:26:48;93868.00;;;4.26;80.02
64211;BME280;73293;48.538;14.354;2023-12-29T03:27:36;93865.52;;;4.25;80.22
64211;BME280;73293;48.538;14.354;2023-12-29T03:28:10;93859.29;;;4.23;80.00